Road Runner Classic 8K

back to results

Jul. 24, 2010

Road Runner Classic 8K
Northville, MI
Provided by Everal Race Management


Overall Female Overall Winners

Place Name City Bib No Age Overall Time Pace
1 Stephanie Kern Northville MI 162 27 8 32:24.1 6:31/M
Overall Male Overall Winners

Place Name City Bib No Age Overall Time Pace
1 Robert Cameron Brighton MI 272 24 1 29:05.5 5:51/M
Overall Female Masters Winners

Place Name City Bib No Age Overall Time Pace
1 Cherie Salmeto Pinckney MI 267 40 15 33:44.8 6:47/M
Overall Male Masters Winners

Place Name City Bib No Age Overall Time Pace
1 John Tarkowski Northville MI 225 57 6 31:47.7 6:24/M
Female 14 & under

Place Name City Bib No Age Overall Time Pace
1 Rachel Coleman Northville MI 119 14 41 39:07.1 7:52/M
2 Sofia Dresevic Northville MI 260 13 162 1:02:38.9 12:36/M
3 Olivia Dresevic Northville MI 258 14 173 1:09:29.2 13:59/M
Male 14 & under

Place Name City Bib No Age Overall Time Pace
1 Josh Joy Canton MI 252 14 19 35:11.7 7:05/M
2 Sean McCullough Northville MI 257 13 24 36:23.1 7:19/M
3 Nicky Broda Northville MI 112 10 63 41:28.0 8:21/M
4 Jacob Taylor Northville MI 226 14 68 42:03.3 8:28/M
5 Jack Miller Northville MI 187 14 118 49:34.2 9:58/M
6 Brent Bartone Northville MI 280 13 149 56:28.1 11:22/M
7 Sean Coleman Northville MI 120 12 159 1:01:39.8 12:24/M
Female 15 to 19

Place Name City Bib No Age Overall Time Pace
1 Julia Schroeder Livonia MI 212 19 17 34:36.2 6:58/M
2 Kaitlin Fenech Livonia MI 270 18 45 39:12.1 7:53/M
3 Kristen Singletary Northville MI 220 19 57 40:53.4 8:14/M
4 Audrey Peters Wyandotte MI 275 18 61 41:16.8 8:18/M
5 Hayley Miller Novi MI 186 19 99 45:46.9 9:13/M
6 Kristin Palusnal Northville MI 259 15 172 1:09:28.7 13:59/M
Male 15 to 19

Place Name City Bib No Age Overall Time Pace
1 Jason Lerner Northville MI 266 16 2 29:22.1 5:55/M
2 Brett Rossio Carleton MI 206 19 3 30:15.7 6:05/M
3 Edward Clifton Northville MI 118 15 4 30:30.8 6:08/M
4 Jon Hevron Rochester MI 145 19 5 30:31.4 6:08/M
5 Zach Taylor Northville MI 227 16 58 41:11.9 8:17/M
6 Jamal Fakih Southgate MI 268 17 87 44:27.2 8:57/M
7 Patrick Wilkerson Canton MI 237 17 102 45:58.8 9:15/M
8 Trevor Baloga Livonia MI 103 15 109 48:22.0 9:44/M
Female 20 to 29

Place Name City Bib No Age Overall Time Pace
1 Alaina Sharp Albion MI 215 28 31 37:31.1 7:33/M
2 Jenna Neagos Plymouth MI 192 26 35 38:18.9 7:42/M
3 Lacey Sapkiewicz Ferndale MI 208 27 53 40:31.1 8:09/M
4 Katie Johnson Northville MI 153 27 72 42:44.4 8:36/M
5 Jessica Gillen Tallmadge OH 137 22 73 42:46.1 8:36/M
6 Sarah Johnson South Lyon MI 155 29 90 44:37.6 8:59/M
7 Katie Edwards Northville MI 131 24 97 45:34.6 9:10/M
8 Gina Chrysler Canton MI 116 25 107 48:10.8 9:41/M
9 Erin Parris Northville MI 302 28 116 49:00.6 9:52/M
10 Katie Miller Ypsilanti MI 188 28 126 51:14.1 10:19/M
11 Kelley Merenius Birmingham MI 246 23 133 52:21.9 10:32/M
12 Erin Gregory Royal Oak MI 140 29 150 56:33.9 11:23/M
13 Alicia Hass Northville MI 144 25 153 58:56.2 11:51/M
14 Kristin Glovac Grosse Pointe MI 274 23 156 1:01:06.8 12:18/M
15 Anne Obudzinski Canton MI 193 26 160 1:02:10.7 12:31/M
16 Kathy Carey Livonia MI 114 23 176 1:10:20.3 14:09/M
17 Candice Jannon Brighton MI 151 29 177 1:11:29.9 14:23/M
18 Christina Blevins Farmington Hills M 108 26 184 1:21:18.0 16:21/M
Male 20 to 29

Place Name City Bib No Age Overall Time Pace
1 Diego Quinones Madison Heights MI 201 29 7 32:19.9 6:30/M
2 Jeffrey Brandt Brighton MI 269 24 11 32:47.8 6:36/M
3 Jay Josefosky Garden City KS 265 26 21 35:28.9 7:08/M
4 Kenneth Damphousse Livonia MI 123 23 28 37:05.4 7:28/M
5 Gordon Garrity Dearborn MI 135 24 30 37:30.5 7:33/M
6 Mario Messina Fowlerville MI 185 29 32 37:36.2 7:34/M
7 Robert Sharp Albion MI 217 29 36 38:19.3 7:43/M
8 Steve Doinidis Northville MI 126 26 42 39:07.7 7:52/M
9 Cody Sharp Parma MI 216 23 43 39:08.9 7:52/M
10 Steve Kolmin Highland Park IL 164 27 44 39:10.6 7:53/M
11 Kirk Kuzia South Lyon MI 248 25 48 39:26.0 7:56/M
12 Justin Ruccolo Birmingham MI 247 23 130 52:04.7 10:29/M
13 Sean Hogan Novi MI 300 23 132 52:19.5 10:32/M
14 Patrick McDonald Troy MI 273 24 157 1:01:07.2 12:18/M
Female 30 to 39

Place Name City Bib No Age Overall Time Pace
1 Katie Alba Canton MI 102 31 34 38:01.9 7:39/M
2 Nachiko Hirato Nothville MI 146 38 38 38:48.5 7:48/M
3 Jill McClain Plymouth MI 182 34 40 39:05.9 7:52/M
4 Shannon Laurie Howell MI 256 35 47 39:24.6 7:56/M
5 Abby Pendleton Northville MI 196 38 66 41:37.0 8:22/M
6 Charlene Lepane Royal Oak MI 168 37 70 42:19.5 8:31/M
7 Cara Gunder Northville MI 141 38 77 43:05.6 8:40/M
8 Adrienne Dresevic Northville MI 127 38 80 43:13.2 8:42/M
9 Amy Assemany Novi MI 279 38 89 44:36.1 8:58/M
10 Tatiana Natsik Farmington MI 180 30 95 45:22.2 9:08/M
11 Angela Y Westland MI 240 33 96 45:29.7 9:09/M
12 Stephanie Carson Northville MI 115 39 98 45:38.8 9:11/M
13 Stephanie Reindel Canton MI 205 39 105 47:06.2 9:29/M
14 Lindsey Humpert Northville MI 149 33 120 49:51.0 10:02/M
15 Shadia Zayed Westland MI 243 34 124 50:11.5 10:06/M
16 Lauren Johnson Commerce Township 154 33 125 50:14.6 10:06/M
17 Carrie Verfaillie Lansing MI 230 31 137 52:52.8 10:38/M
18 Lynda Parson Ypsilanti MI 195 38 140 53:14.1 10:43/M
19 Christine Gerdes Saline MI 136 36 141 53:33.3 10:46/M
20 Melissa Dalton Oxford MI 290 38 144 53:56.2 10:51/M
21 Fae Price Canton MI 200 34 145 54:29.6 10:58/M
22 Amber Logan Canton MI 170 36 146 54:30.2 10:58/M
23 Carly Jacobs Keego Harbor MI 150 33 155 59:37.5 12:00/M
24 Melanie Stabler Redford MI 285 39 169 1:06:51.2 13:27/M
25 Jennie Norton Swartz Creek MI 284 36 174 1:09:37.6 14:00/M
26 Amy Hall Ann Arbor MI 143 32 175 1:10:19.9 14:09/M
27 Katie Darling South Lyon MI 249 31 179 1:12:39.5 14:37/M
28 Shannon Setlock Livonia MI 214 33 181 1:19:18.3 15:57/M
Male 30 to 39

Place Name City Bib No Age Overall Time Pace
1 Alek Kokoszka Plymouth MI 163 30 10 32:37.0 6:34/M
2 Kaoru Kawashima Northville MI 161 30 13 33:21.1 6:43/M
3 Duma Hicu Wixom MI 296 30 18 34:55.5 7:02/M
4 David Houser Farmington MI 147 30 23 36:19.9 7:18/M
5 Ronald Adelman Plymouth MI 282 32 27 36:51.2 7:25/M
6 Brian Smith Farmington MI 295 38 37 38:43.2 7:47/M
7 Chad Cooper Brighton MI 121 37 49 39:41.5 7:59/M
8 Wolfgang Schauss Ypsilanti MI 211 37 54 40:38.3 8:11/M
9 Nick Minnick South Lyon MI 297 35 55 40:41.6 8:11/M
10 Cameron Grahl Plymouth MI 138 36 60 41:14.6 8:18/M
11 Sean Williams Ann Arbor MI 238 33 69 42:13.4 8:30/M
12 Steven Novicki New Boston MI 281 38 74 42:47.6 8:36/M
13 Ryan McClain Plymouth MI 183 36 85 44:16.9 8:54/M
14 Jared Hopkins Northville MI 298 36 88 44:35.0 8:58/M
15 Scott Youngberg South Lyon MI 241 35 91 44:40.3 8:59/M
16 Chad Parson Ypsilanti MI 194 34 93 45:11.2 9:05/M
17 Christopher Powell Milan MI 199 39 110 48:22.4 9:44/M
18 Jerome Dykas Garden City MI 129 35 112 48:34.7 9:46/M
19 Stephen Dudek Livonia MI 250 38 114 48:50.1 9:50/M
20 Jason Herlong Birmingham MI 283 30 127 51:22.3 10:20/M
21 Deanna Strong Northville MI 222 35 128 51:57.9 10:27/M
22 Blaine Dehrins Clarkston MI 294 33 129 51:58.3 10:27/M
23 Tom Tanasoff Farmington MI 224 39 135 52:50.7 10:38/M
24 Scott Dalton Oxford MI 289 38 152 58:03.8 11:41/M
Female 40 to 49

Place Name City Bib No Age Overall Time Pace
1 Jane Dyson Northville MI 130 44 46 39:18.4 7:54/M
2 Amy Hartman South Lyon MI 271 41 52 40:16.8 8:06/M
3 Julie Colter Northville MI 288 43 71 42:34.1 8:34/M
4 Denise Dasher Temperance MI 124 40 75 42:51.6 8:37/M
5 Lisa Zulcosky Northville MI 244 41 82 43:45.1 8:48/M
6 Lisa Reilly Northville MI 204 45 108 48:11.3 9:42/M
7 Jennifer Lemieux Canton MI 167 47 111 48:29.2 9:45/M
8 Patricia Rathwell Commerce Township 203 45 113 48:48.4 9:49/M
9 Tracy Willis Farmington MI 239 41 115 48:53.8 9:50/M
10 Kimberly Mesler Livonia MI 184 43 119 49:40.5 10:00/M
11 Renee Tan Northville MI 223 41 122 50:03.7 10:04/M
12 Jaime Manville Farmington Hills M 179 47 131 52:17.2 10:31/M
13 Gloria Hage Northville MI 142 48 136 52:51.5 10:38/M
14 Jill McCullough Grapevine TX 253 46 143 53:39.4 10:48/M
15 Debra Schauss Ypsilanti MI 210 43 161 1:02:36.4 12:36/M
16 Suzanne Espinosa Royal Oak MI 133 41 163 1:03:22.6 12:45/M
17 Michelle Silversides Brighton MI 219 44 165 1:05:25.5 13:10/M
18 Debi Woodworth Oakland TN 262 44 170 1:07:15.1 13:32/M
19 Dina Waldenmayer Canton MI 231 42 171 1:07:15.5 13:32/M
20 Julie Lowe Ferndale MI 173 45 180 1:12:41.9 14:37/M
Male 40 to 49

Place Name City Bib No Age Overall Time Pace
1 Shawn Wehrly Royal Oak MI 277 41 9 32:32.3 6:33/M
2 Scott Wiley Canton MI 234 41 14 33:44.1 6:47/M
3 Bill Goodwin 291 40 16 33:45.6 6:47/M
4 Michael Mansfield Northville MI 178 43 22 36:11.5 7:17/M
5 Christopher McClain Livonia MI 181 48 26 36:37.0 7:22/M
6 Peter Kopera Trenton MI 165 42 33 37:39.6 7:35/M
7 John McInnis Northville MI 264 46 39 38:53.6 7:49/M
8 Steven Jordan Northville MI 156 42 50 39:46.6 8:00/M
9 James Lyons Clinton Twp MI 174 40 59 41:13.9 8:18/M
10 Jim Zittel Waterford MI 292 47 62 41:25.7 8:20/M
11 Steve Broda Northville MI 113 48 64 41:28.5 8:21/M
12 Michael Cicotte Westland MI 117 46 76 43:02.2 8:40/M
13 Scott Beltz South Lyon MI 278 40 78 43:07.2 8:41/M
14 Kevin Cleary Ann Arbor MI 293 40 79 43:11.5 8:41/M
15 Dennis Tierney Howell MI 245 47 86 44:23.9 8:56/M
16 Dave Berkey Canton MI 286 47 92 44:58.2 9:03/M
17 Jim White Farmington MI 276 42 94 45:18.7 9:07/M
18 Rick Miller Novi MI 189 49 100 45:47.7 9:13/M
19 Philip Pendleton Northville MI 197 42 101 45:50.9 9:13/M
20 Jim Green South Lyon MI 139 48 103 46:03.8 9:16/M
21 Paul Bays South Lyon MI 104 43 104 46:49.7 9:25/M
22 Venkatesh Kannan Novi MI 160 42 106 47:57.9 9:39/M
23 Yuexin Huang Novi MI 148 44 134 52:40.3 10:36/M
24 Brian Logan Canton MI 171 40 158 1:01:32.2 12:23/M
Female 50 to 59

Place Name City Bib No Age Overall Time Pace
1 Gail Mroz Northville MI 190 51 51 40:06.9 8:04/M
2 Celia Kackman Livonia MI 158 50 147 54:52.0 11:02/M
3 Therese Bianchi Shelby Township MI 107 50 148 56:14.5 11:19/M
4 Cindy Wilkerson Canton MI 235 51 167 1:05:36.9 13:12/M
5 Marriane Kaczor New Hudson MI 159 57 168 1:05:38.3 13:12/M
6 Diane Stahle Canton MI 221 52 182 1:20:58.0 16:17/M
7 Anna Bollman Ypsilanti MI 110 59 183 1:21:10.3 16:20/M
Male 50 to 59

Place Name City Bib No Age Overall Time Pace
1 Phil French Howell MI 67 53 12 33:03.5 6:39/M
2 John Yurchis Wayne MI 242 55 20 35:16.7 7:06/M
3 Jim Debrincat Livonia MI 125 52 25 36:31.1 7:21/M
4 Thomas Mroz Northville MI 191 52 29 37:15.2 7:30/M
5 Hiroyuki Shinohara Ann Arbor MI 218 55 56 40:48.2 8:13/M
6 Ben Beale Northville MI 105 50 65 41:36.4 8:22/M
7 Robin Pearce New Hudson MI 254 57 67 41:46.1 8:24/M
8 Randy Meek Hartland MI 251 50 81 43:29.6 8:45/M
9 Domingo Valadez Temperance MI 229 51 83 43:50.5 8:49/M
10 Len Constantine Chesterfield MI 263 57 121 49:56.8 10:03/M
11 Tim Thompson Novi MI 287 55 123 50:09.3 10:05/M
12 James Scott South Lyon MI 213 51 139 53:06.8 10:41/M
13 Rick Franczak Commerce Township 134 52 142 53:35.0 10:47/M
14 Hilory Earley Livonia MI 299 59 164 1:03:47.1 12:50/M
15 Louis Blevins Gibraltar MI 109 53 185 1:21:18.9 16:21/M
Male 60 to 69

Place Name City Bib No Age Overall Time Pace
1 Larry Duggan Northville MI 128 68 84 44:13.4 8:54/M
2 Mike Parris Birmingham MI 301 61 117 49:01.1 9:52/M
3 William Bujak Belleville MI 255 60 138 52:53.4 10:38/M
4 Paul Leece Livonia MI 166 68 151 57:53.9 11:39/M
5 Archie Pollard Detroit MI 198 68 178 1:12:26.7 14:34/M
Male 70 & up

Place Name City Bib No Age Overall Time Pace
1 Bob Ranta South Lyon MI 202 70 154 59:28.1 11:58/M
2 Ralph Judd Southfield MI 157 72 166 1:05:28.9 13:10/M

Northville, MI
Provided by Everal Race Management